Time;durP1;ratioP1;P1;durP2;ratioP2;P2;SDS_P1;SDS_P2;PMS_P1;PMS_P2;Temp;Humidity;BMP_temperature;BMP_pressure;BME280_temperature;BME280_humidity;BME280_pressure;Samples;Min_cycle;Max_cycle;Signal;HPM_P1;HPM_P2
2022/05/07 00:01:07;;;;;;;44.50;30.83;;;10.40;99.90;;;;;;5013697;28;20048;-65
2022/05/07 00:03:34;;;;;;;34.33;25.83;;;10.40;99.90;;;;;;5011566;28;20053;-69
2022/05/07 00:06:01;;;;;;;40.75;25.83;;;10.40;99.90;;;;;;5013933;28;20040;-68
2022/05/07 00:08:28;;;;;;;34.45;27.15;;;10.30;99.90;;;;;;5010508;28;20134;-69
2022/05/07 00:10:55;;;;;;;;;;;10.30;99.90;;;;;;5016852;28;20507;-68
2022/05/07 00:13:22;;;;;;;40.83;29.23;;;10.30;99.90;;;;;;5017471;28;19968;-67
2022/05/07 00:18:34;;;;;;;40.72;29.63;;;10.30;99.90;;;;;;5015811;28;20096;-70
2022/05/07 00:21:01;;;;;;;41.13;31.00;;;10.30;99.90;;;;;;5017471;28;20045;-68
2022/05/07 00:23:27;;;;;;;34.70;27.38;;;10.30;99.90;;;;;;5017229;28;20100;-68
2022/05/07 00:25:54;;;;;;;;;;;10.30;99.90;;;;;;5017648;28;20033;-69
2022/05/07 00:28:21;;;;;;;45.30;29.25;;;10.30;99.90;;;;;;5015412;28;19932;-69
2022/05/07 00:30:48;;;;;;;;;;;10.30;99.90;;;;;;5016781;28;20045;-69
2022/05/07 00:33:14;;;;;;;45.03;32.20;;;10.30;99.90;;;;;;5015575;28;19999;-70
2022/05/07 00:35:41;;;;;;;;;;;10.20;99.90;;;;;;5015994;28;20108;-68
2022/05/07 00:38:08;;;;;;;37.42;26.30;;;10.20;99.90;;;;;;5014299;28;19983;-68
2022/05/07 00:40:36;;;;;;;;;;;10.20;99.90;;;;;;5004187;28;20042;-69
2022/05/07 00:43:03;;;;;;;42.00;29.30;;;10.20;99.90;;;;;;4994818;28;19925;-70
2022/05/07 00:45:30;;;;;;;;;;;10.20;99.90;;;;;;4997656;28;20057;-70
2022/05/07 00:47:57;;;;;;;41.40;27.88;;;10.20;99.90;;;;;;4996275;28;19921;-69
2022/05/07 00:53:17;;;;;;;41.25;30.45;;;10.20;99.90;;;;;;4986053;28;20054;-69
2022/05/07 00:55:44;;;;;;;;;;;10.20;99.90;;;;;;4997375;28;20042;-70
2022/05/07 00:58:11;;;;;;;41.50;30.92;;;10.10;99.90;;;;;;4993827;28;20359;-69
2022/05/07 01:00:39;;;;;;;36.22;26.83;;;10.10;99.90;;;;;;4994775;28;20069;-69
2022/05/07 01:03:06;;;;;;;;;;;10.10;99.90;;;;;;4996002;28;20050;-68
2022/05/07 01:05:33;;;;;;;45.88;30.65;;;10.10;99.90;;;;;;4995196;28;19932;-69
2022/05/07 01:08:01;;;;;;;50.25;34.05;;;10.10;99.90;;;;;;4995259;28;20136;-68
2022/05/07 01:10:29;;;;;;;53.63;33.20;;;10.00;99.90;;;;;;5013963;28;20227;-69
2022/05/07 01:12:57;;;;;;;45.80;29.25;;;10.00;99.90;;;;;;5015429;28;20053;-69
2022/05/07 01:15:25;;;;;;;43.90;29.92;;;10.00;99.90;;;;;;5013863;28;20041;-69
2022/05/07 01:17:53;;;;;;;46.80;31.85;;;9.90;99.90;;;;;;5013510;28;20037;-68
2022/05/07 01:20:20;;;;;;;54.35;35.53;;;9.90;99.90;;;;;;5013573;28;20041;-69
2022/05/07 01:22:48;;;;;;;49.53;33.95;;;9.90;99.90;;;;;;5013425;28;20049;-68
2022/05/07 01:25:23;;;;;;;46.50;29.83;;;9.90;99.90;;;;;;5014181;28;20041;-68
2022/05/07 01:27:49;;;;;;;52.35;33.85;;;9.80;99.90;;;;;;5012943;28;20057;-68
2022/05/07 01:30:16;;;;;;;38.40;28.10;;;9.80;99.90;;;;;;5013737;28;20053;-70
2022/05/07 01:32:44;;;;;;;42.03;30.05;;;9.80;99.90;;;;;;5013336;28;20072;-70
2022/05/07 01:35:11;;;;;;;40.03;27.15;;;9.80;99.90;;;;;;5014406;28;20049;-68
2022/05/07 01:37:40;;;;;;;43.97;29.48;;;9.80;99.90;;;;;;5012108;28;20048;-69
2022/05/07 01:40:07;;;;;;;50.53;33.03;;;9.80;99.90;;;;;;5009299;28;20041;-68
2022/05/07 01:42:37;;;;;;;66.88;39.90;;;9.80;99.90;;;;;;4993906;28;20627;-68
2022/05/07 01:45:05;;;;;;;57.35;38.60;;;9.80;99.90;;;;;;4995251;28;20034;-69
2022/05/07 01:50:26;;;;;;;65.00;42.70;;;9.70;99.90;;;;;;4993316;28;20862;-68
2022/05/07 01:52:53;;;;;;;63.60;40.75;;;9.70;99.90;;;;;;4993944;28;20052;-68
2022/05/07 01:55:20;;;;;;;63.33;40.92;;;9.80;99.90;;;;;;5005502;28;20800;-70
2022/05/07 01:57:50;;;;;;;71.63;41.58;;;9.70;99.90;;;;;;5004401;28;20715;-68
2022/05/07 02:00:19;;;;;;;82.95;46.55;;;9.70;99.90;;;;;;5012818;28;20721;-68
2022/05/07 02:02:46;;;;;;;55.38;35.53;;;9.70;99.90;;;;;;5013547;28;20577;-67
2022/05/07 02:05:20;;;;;;;72.68;44.33;;;9.70;99.90;;;;;;5012645;28;20045;-68
2022/05/07 02:07:46;;;;;;;76.68;45.40;;;9.70;99.90;;;;;;5013933;28;20065;-67
2022/05/07 02:10:15;;;;;;;67.18;43.58;;;9.70;99.90;;;;;;5006265;28;20041;-69
2022/05/07 02:12:42;;;;;;;73.85;45.33;;;9.70;99.90;;;;;;5012269;28;20041;-68
2022/05/07 02:15:10;;;;;;;72.32;46.60;;;9.70;99.90;;;;;;5012918;28;20163;-69
2022/05/07 02:17:37;;;;;;;64.75;42.65;;;9.70;99.90;;;;;;5006856;28;20053;-69
2022/05/07 02:20:05;;;;;;;53.75;37.50;;;9.70;99.90;;;;;;5012808;28;20500;-68
2022/05/07 02:22:34;;;;;;;52.05;34.55;;;9.70;99.90;;;;;;5013054;28;20059;-69
2022/05/07 02:25:01;;;;;;;55.45;35.45;;;9.80;99.90;;;;;;5013440;28;20099;-69
2022/05/07 02:27:28;;;;;;;70.18;44.28;;;9.80;99.90;;;;;;5011936;28;20041;-70
2022/05/07 02:29:58;;;;;;;53.08;34.92;;;9.80;99.90;;;;;;5012469;28;20041;-70
2022/05/07 02:32:28;;;;;;;52.60;34.35;;;9.80;99.90;;;;;;5014098;28;20119;-70
2022/05/07 02:34:54;;;;;;;;;;;9.80;99.90;;;;;;5012795;28;20052;-70
2022/05/07 02:37:27;;;;;;;67.95;42.28;;;9.80;99.90;;;;;;5012199;28;20761;-69
2022/05/07 02:39:55;;;;;;;65.65;40.72;;;9.80;99.90;;;;;;5010869;28;20111;-69
2022/05/07 02:42:42;;;;;;;52.30;34.40;;;9.90;99.90;;;;;;5008877;28;20797;-69
2022/05/07 02:45:12;;;;;;;50.65;34.17;;;9.80;99.90;;;;;;4994070;28;20263;-69
2022/05/07 02:47:42;;;;;;;48.38;32.20;;;9.90;99.90;;;;;;4992094;28;20116;-69
2022/05/07 02:50:12;;;;;;;56.15;38.63;;;9.90;99.90;;;;;;4992270;28;20060;-69
2022/05/07 02:52:40;;;;;;;52.28;35.63;;;9.90;99.90;;;;;;4992764;28;20070;-69
2022/05/07 02:55:09;;;;;;;51.40;33.80;;;9.90;99.90;;;;;;4994577;28;20345;-69
2022/05/07 02:57:38;;;;;;;55.17;34.90;;;9.90;99.90;;;;;;4993135;28;20563;-69
2022/05/07 03:00:05;;;;;;;53.38;36.88;;;9.90;99.90;;;;;;4994631;28;20046;-69
2022/05/07 03:02:35;;;;;;;74.93;42.78;;;10.00;99.90;;;;;;4995850;28;20041;-68
2022/05/07 03:05:04;;;;;;;53.60;36.28;;;10.00;99.90;;;;;;5012753;28;20041;-70
2022/05/07 03:07:31;;;;;;;50.60;33.78;;;10.00;99.90;;;;;;5013043;28;20480;-71
2022/05/07 03:10:01;;;;;;;49.75;32.63;;;10.00;99.90;;;;;;5011585;28;20574;-70
2022/05/07 03:12:29;;;;;;;58.45;40.40;;;10.00;99.90;;;;;;5013987;28;20045;-70
2022/05/07 03:14:55;;;;;;;63.78;41.00;;;10.00;99.90;;;;;;5014134;28;20052;-69
2022/05/07 03:17:23;;;;;;;66.75;41.70;;;10.00;99.90;;;;;;5011132;28;20126;-68
2022/05/07 03:19:50;;;;;;;58.03;37.80;;;10.00;99.90;;;;;;5011430;28;20038;-69
2022/05/07 03:22:21;;;;;;;50.00;33.75;;;9.90;99.90;;;;;;5014632;28;20557;-70
2022/05/07 03:24:49;;;;;;;50.30;34.80;;;9.90;99.90;;;;;;5011605;28;20133;-69
2022/05/07 03:27:16;;;;;;;59.50;39.20;;;10.00;99.90;;;;;;5011688;28;20037;-70
2022/05/07 03:29:43;;;;;;;63.83;37.88;;;10.00;99.90;;;;;;5012509;28;20502;-70
2022/05/07 03:32:17;;;;;;;52.42;35.72;;;10.00;99.90;;;;;;5012869;28;20709;-70
2022/05/07 03:34:49;;;;;;;46.45;32.50;;;10.00;99.90;;;;;;5012034;28;20093;-70
2022/05/07 03:37:16;;;;;;;50.78;34.08;;;10.00;99.90;;;;;;5012692;28;20055;-70
2022/05/07 03:39:44;;;;;;;52.50;34.95;;;10.00;99.90;;;;;;5011717;28;20445;-69
2022/05/07 03:42:14;;;;;;;54.47;36.33;;;10.00;99.90;;;;;;5000893;28;20468;-70
2022/05/07 03:44:41;;;;;;;;;;;10.00;99.90;;;;;;4993720;28;20137;-69
2022/05/07 03:47:08;;;;;;;48.78;34.45;;;10.00;99.90;;;;;;4995729;28;19930;-70
2022/05/07 03:49:35;;;;;;;49.53;33.80;;;10.00;99.90;;;;;;4995858;28;20056;-69
2022/05/07 03:54:49;;;;;;;55.42;35.05;;;10.00;99.90;;;;;;4995762;28;20127;-70
2022/05/07 03:57:16;;;;;;;66.55;43.15;;;10.00;99.90;;;;;;4995238;28;20049;-70
2022/05/07 03:59:44;;;;;;;68.53;43.25;;;10.00;99.90;;;;;;4995590;28;20104;-70
2022/05/07 04:02:11;;;;;;;;;;;10.00;99.90;;;;;;4996519;28;20132;-70
2022/05/07 04:04:51;;;;;;;49.08;33.13;;;10.00;99.90;;;;;;4997028;28;19925;-70
2022/05/07 04:07:19;;;;;;;58.63;36.58;;;10.00;99.90;;;;;;4995933;28;20594;-70
2022/05/07 04:09:55;;;;;;;56.85;38.42;;;10.00;99.90;;;;;;5012229;28;20997;-70
2022/05/07 04:12:26;;;;;;;52.85;34.30;;;10.00;99.90;;;;;;5000031;28;20505;-71
2022/05/07 04:14:52;;;;;;;;;;;10.00;99.90;;;;;;5017763;28;20068;-70
2022/05/07 04:17:23;;;;;;;56.15;34.10;;;10.00;99.90;;;;;;5014428;28;20445;-70
2022/05/07 04:19:55;;;;;;;50.13;34.67;;;10.00;99.90;;;;;;5014539;28;20038;-71
2022/05/07 04:22:22;;;;;;;52.10;34.72;;;10.10;99.90;;;;;;5015334;28;20516;-69
2022/05/07 04:24:50;;;;;;;62.63;39.42;;;10.10;99.90;;;;;;5015504;28;20099;-70
2022/05/07 04:27:17;;;;;;;55.22;36.15;;;10.10;99.90;;;;;;5013835;28;20542;-70
2022/05/07 04:29:51;;;;;;;55.70;35.60;;;10.10;99.90;;;;;;5015618;28;20041;-70
2022/05/07 04:32:20;;;;;;;50.95;31.75;;;10.10;99.90;;;;;;5016743;28;20056;-67
2022/05/07 04:34:52;;;;;;;53.08;35.08;;;10.10;99.90;;;;;;5015219;28;20895;-66
2022/05/07 04:37:21;;;;;;;52.42;32.90;;;10.20;99.90;;;;;;5013051;28;20042;-67
2022/05/07 04:39:48;;;;;;;53.85;34.17;;;10.20;99.90;;;;;;5012667;28;20053;-67
2022/05/07 04:42:15;;;;;;;50.90;34.90;;;10.20;99.90;;;;;;5002006;28;20034;-67
2022/05/07 04:44:46;;;;;;;54.67;36.55;;;10.20;99.90;;;;;;4998389;28;20457;-67
2022/05/07 04:47:23;;;;;;;44.53;31.08;;;10.30;99.90;;;;;;4996137;28;20041;-66
2022/05/07 04:49:51;;;;;;;52.97;35.80;;;10.30;99.90;;;;;;4993949;28;20049;-66
2022/05/07 04:52:18;;;;;;;49.60;33.80;;;10.30;99.90;;;;;;4995135;28;20054;-67
2022/05/07 04:54:49;;;;;;;48.92;33.45;;;10.30;99.90;;;;;;4995105;28;20057;-66
2022/05/07 04:57:18;;;;;;;49.33;35.38;;;10.30;99.90;;;;;;4992450;28;20182;-66
2022/05/07 04:59:57;;;;;;;47.97;34.38;;;10.40;99.90;;;;;;4994232;28;20764;-66
2022/05/07 05:02:37;;;;;;;47.50;34.13;;;10.40;99.90;;;;;;4980292;28;20041;-54
2022/05/07 05:05:07;;;;;;;45.10;31.42;;;10.40;99.90;;;;;;4994074;28;20056;-56
2022/05/07 05:07:35;;;;;;;57.83;37.88;;;10.40;99.90;;;;;;4994107;28;20045;-57
2022/05/07 05:10:02;;;;;;;55.38;35.97;;;10.40;99.90;;;;;;5005793;28;20060;-56
2022/05/07 05:12:41;;;;;;;45.20;32.42;;;10.40;99.90;;;;;;5013611;28;20053;-57
2022/05/07 05:15:10;;;;;;;47.10;34.20;;;10.50;99.90;;;;;;5013915;28;20589;-56
2022/05/07 05:18:01;;;;;;;60.45;38.88;;;10.50;99.90;;;;;;5010511;28;20073;-56
2022/05/07 05:20:32;;;;;;;69.13;43.42;;;10.50;99.90;;;;;;5013746;28;20782;-58
2022/05/07 05:23:10;;;;;;;63.65;43.42;;;10.60;99.90;;;;;;5013797;28;20124;-57
2022/05/07 05:25:45;;;;;;;64.00;41.83;;;10.60;99.90;;;;;;5013990;28;20435;-57
2022/05/07 05:28:33;;;;;;;64.90;42.33;;;10.70;99.90;;;;;;5014583;28;20053;-56
2022/05/07 05:31:05;;;;;;;58.20;40.70;;;10.70;99.90;;;;;;5015377;28;20037;-55
2022/05/07 05:33:37;;;;;;;54.92;39.92;;;10.70;99.90;;;;;;5009910;28;20041;-56
2022/05/07 05:36:10;;;;;;;52.15;37.95;;;10.80;99.90;;;;;;5013454;28;20042;-55
2022/05/07 05:38:39;;;;;;;54.45;39.15;;;10.80;99.90;;;;;;5012677;28;20140;-53
2022/05/07 05:41:08;;;;;;;60.13;39.83;;;10.80;99.90;;;;;;5010999;28;20542;-54
2022/05/07 05:43:38;;;;;;;56.58;39.70;;;10.90;99.90;;;;;;5012259;28;20034;-55
2022/05/07 05:46:05;;;;;;;56.03;39.72;;;10.90;99.90;;;;;;5012539;28;20496;-56
2022/05/07 05:48:34;;;;;;;57.63;40.53;;;10.90;99.90;;;;;;5012115;28;20822;-54
2022/05/07 05:51:02;;;;;;;56.47;39.20;;;11.00;99.90;;;;;;5012525;28;20157;-55
2022/05/07 05:53:33;;;;;;;58.65;42.42;;;11.00;99.90;;;;;;5013503;28;20164;-53
2022/05/07 05:56:00;;;;;;;63.03;43.05;;;11.00;99.90;;;;;;5012165;28;20145;-53
2022/05/07 05:58:36;;;;;;;63.22;43.90;;;11.00;99.90;;;;;;5012184;28;20045;-54
2022/05/07 06:01:06;;;;;;;59.33;39.30;;;11.00;99.90;;;;;;5012932;28;20046;-55
2022/05/07 06:03:37;;;;;;;49.90;37.53;;;11.00;99.90;;;;;;5012410;28;20125;-62
2022/05/07 06:06:16;;;;;;;49.13;35.15;;;11.00;99.90;;;;;;5051219;28;21114;-57
2022/05/07 06:08:43;;;;;;;52.75;34.83;;;11.10;99.90;;;;;;5048245;28;20037;-58
2022/05/07 06:11:10;;;;;;;54.90;38.78;;;11.10;99.90;;;;;;5028775;28;20046;-56
2022/05/07 06:13:38;;;;;;;58.22;39.88;;;11.10;99.90;;;;;;5046207;28;20113;-56
2022/05/07 06:16:05;;;;;;;60.53;40.15;;;11.10;99.90;;;;;;5035447;28;20053;-58
2022/05/07 06:18:32;;;;;;;;;;;11.20;99.90;;;;;;5048627;28;20044;-56
2022/05/07 06:21:03;;;;;;;59.63;42.08;;;11.20;99.90;;;;;;5049108;28;20401;-56
2022/05/07 06:23:35;;;;;;;64.47;43.50;;;11.20;99.90;;;;;;5049452;28;20049;-56
2022/05/07 06:28:48;;;;;;;57.17;40.00;;;11.20;99.90;;;;;;5048278;28;20650;-56
2022/05/07 06:31:16;;;;;;;;;;;11.30;99.90;;;;;;5050561;28;20037;-56
2022/05/07 06:33:44;;;;;;;60.40;40.85;;;11.30;99.90;;;;;;5048608;28;19931;-53
2022/05/07 06:36:12;;;;;;;56.00;40.50;;;11.20;99.90;;;;;;5048184;28;20121;-53
2022/05/07 06:38:41;;;;;;;57.92;42.10;;;11.30;99.90;;;;;;5047927;28;20059;-57
2022/05/07 06:41:11;;;;;;;60.25;41.45;;;11.30;99.90;;;;;;5049197;28;20049;-54
2022/05/07 06:43:52;;;;;;;56.00;41.33;;;11.30;99.90;;;;;;5044223;28;20090;-56
2022/05/07 06:46:33;;;;;;;63.63;42.00;;;11.30;99.90;;;;;;5027717;28;20045;-52
2022/05/07 06:49:06;;;;;;;60.88;43.53;;;11.30;99.90;;;;;;5029552;28;20577;-53
2022/05/07 06:51:51;;;;;;;67.88;42.90;;;11.30;99.90;;;;;;5028930;28;20049;-56
2022/05/07 06:54:18;;;;;;;56.08;40.17;;;11.30;99.90;;;;;;5028849;28;20044;-58
2022/05/07 06:56:45;;;;;;;52.63;39.70;;;11.30;99.90;;;;;;5027838;28;20045;-59
2022/05/07 06:59:11;;;;;;;60.63;40.92;;;11.40;99.90;;;;;;5027936;28;20037;-57
2022/05/07 07:01:38;;;;;;;;;;;11.40;99.90;;;;;;5030454;28;20060;-54
2022/05/07 07:04:05;;;;;;;58.33;40.15;;;11.40;99.90;;;;;;5029439;28;19939;-59
2022/05/07 07:06:32;;;;;;;55.70;40.08;;;11.40;99.90;;;;;;5030103;28;20664;-59
2022/05/07 07:08:59;;;;;;;62.38;42.95;;;11.40;99.90;;;;;;5037751;28;20099;-57
2022/05/07 07:11:26;;;;;;;57.20;39.30;;;11.50;99.90;;;;;;5048018;28;20497;-56
2022/05/07 07:13:52;;;;;;;;;;;11.50;99.90;;;;;;5050288;28;20463;-54
2022/05/07 07:16:19;;;;;;;48.33;36.75;;;11.50;99.90;;;;;;5042641;28;19931;-55
2022/05/07 07:18:47;;;;;;;49.15;36.00;;;11.50;99.90;;;;;;5034264;28;20041;-54
2022/05/07 07:21:14;;;;;;;50.72;36.55;;;11.60;99.90;;;;;;5035937;28;20051;-55
2022/05/07 07:23:41;;;;;;;58.95;42.15;;;11.60;99.90;;;;;;5036311;28;20048;-56
2022/05/07 07:26:07;;;;;;;;;;;11.60;99.90;;;;;;5036379;28;20045;-54
2022/05/07 07:28:34;;;;;;;71.30;46.50;;;11.60;99.90;;;;;;5034229;28;20264;-56
2022/05/07 07:31:01;;;;;;;;;;;11.50;99.90;;;;;;5035170;28;20372;-55
2022/05/07 07:33:28;;;;;;;58.78;41.92;;;11.50;99.90;;;;;;5035670;28;19924;-54
2022/05/07 07:35:55;;;;;;;;;;;11.50;99.90;;;;;;5036907;28;20100;-56
2022/05/07 07:38:29;;;;;;;61.88;42.35;;;11.50;99.90;;;;;;5033229;28;19978;-54
2022/05/07 07:40:56;;;;;;;62.35;41.53;;;11.50;99.90;;;;;;5036058;28;20056;-56
2022/05/07 07:43:23;;;;;;;52.03;39.15;;;11.50;99.90;;;;;;5035889;28;20045;-55
2022/05/07 07:48:35;;;;;;;57.58;42.38;;;11.50;99.90;;;;;;5014842;28;20041;-53
2022/05/07 07:51:03;;;;;;;53.45;40.92;;;11.50;99.90;;;;;;5016003;28;20047;-55
2022/05/07 07:53:30;;;;;;;52.55;40.78;;;11.50;99.90;;;;;;5015944;28;20055;-53
2022/05/07 07:55:56;;;;;;;;;;;11.40;99.90;;;;;;5033592;28;20052;-58
2022/05/07 07:58:23;;;;;;;55.55;39.83;;;11.40;99.90;;;;;;5034776;28;19947;-59
2022/05/07 08:00:51;;;;;;;58.38;41.22;;;11.40;99.90;;;;;;5034570;28;20506;-60
2022/05/07 08:03:19;;;;;;;59.40;43.15;;;11.40;99.90;;;;;;5034004;28;20052;-62
2022/05/07 08:05:49;;;;;;;53.38;40.80;;;11.40;99.90;;;;;;5035194;28;20071;-59
2022/05/07 08:13:49;;;;;;;44.80;34.28;;;11.50;99.90;;;;;;5032960;28;20041;-58
2022/05/07 08:16:19;;;;;;;47.38;34.65;;;11.50;99.90;;;;;;5033677;28;20068;-53
2022/05/07 08:18:47;;;;;;;42.33;32.72;;;11.50;99.90;;;;;;5026099;28;20053;-54
2022/05/07 08:21:14;;;;;;;41.65;32.20;;;11.60;99.90;;;;;;5015700;28;20139;-54
2022/05/07 08:23:41;;;;;;;;;;;11.60;99.90;;;;;;5014250;28;20045;-50
2022/05/07 08:26:09;;;;;;;43.35;32.58;;;11.70;99.90;;;;;;5015381;28;19932;-54
2022/05/07 08:28:38;;;;;;;40.55;31.40;;;11.70;99.90;;;;;;5022384;28;20056;-52
2022/05/07 08:31:06;;;;;;;43.72;30.67;;;11.70;99.90;;;;;;5035042;28;20059;-56
2022/05/07 08:33:33;;;;;;;43.33;33.00;;;11.80;99.90;;;;;;5035160;28;20049;-55
2022/05/07 08:36:01;;;;;;;42.22;33.40;;;11.90;99.90;;;;;;5033863;28;20043;-57
2022/05/07 08:38:28;;;;;;;41.80;32.58;;;12.00;99.90;;;;;;5032649;28;20547;-56
2022/05/07 08:40:55;;;;;;;;;;;12.10;99.90;;;;;;5035330;28;20041;-56
2022/05/07 08:43:22;;;;;;;37.10;29.10;;;12.10;99.90;;;;;;5035147;28;19932;-56
2022/05/07 08:45:49;;;;;;;37.05;27.70;;;12.20;99.90;;;;;;5030623;28;20036;-55
2022/05/07 08:48:17;;;;;;;;;;;12.20;99.90;;;;;;5018953;28;20037;-56
2022/05/07 08:50:53;;;;;;;44.20;32.58;;;12.30;99.90;;;;;;5014848;28;20431;-57
2022/05/07 08:53:21;;;;;;;40.97;32.78;;;12.30;99.90;;;;;;5013054;28;20421;-56
2022/05/07 08:55:54;;;;;;;41.67;30.30;;;12.40;99.90;;;;;;5014830;28;20049;-54
2022/05/07 08:58:22;;;;;;;41.38;33.75;;;12.40;99.90;;;;;;5013276;28;20061;-51
2022/05/07 09:00:49;;;;;;;40.85;31.33;;;12.50;99.90;;;;;;5014940;28;20077;-57
2022/05/07 09:03:17;;;;;;;37.13;29.77;;;12.60;99.90;;;;;;5014500;28;20123;-55
2022/05/07 09:05:44;;;;;;;48.45;34.67;;;12.70;99.90;;;;;;5015122;28;20782;-54
2022/05/07 09:08:12;;;;;;;49.45;36.67;;;12.70;99.90;;;;;;5027401;28;20041;-54
2022/05/07 09:10:40;;;;;;;51.15;36.30;;;12.80;99.90;;;;;;5022640;28;20048;-54
2022/05/07 09:13:15;;;;;;;50.97;36.53;;;12.90;99.90;;;;;;5033862;28;20076;-54
2022/05/07 09:15:56;;;;;;;52.63;37.97;;;13.00;99.90;;;;;;5034386;28;20049;-53
2022/05/07 09:18:25;;;;;;;53.22;38.60;;;13.00;99.90;;;;;;5013976;28;20049;-56
2022/05/07 09:21:23;;;;;;;51.33;38.42;;;13.00;99.90;;;;;;5012719;28;20061;-55
2022/05/07 09:24:06;;;;;;;56.38;40.78;;;13.10;99.90;;;;;;5027957;28;20045;-52
2022/05/07 09:26:37;;;;;;;62.13;42.47;;;13.10;99.90;;;;;;5034354;28;20068;-52
2022/05/07 09:29:08;;;;;;;59.17;40.20;;;13.00;99.90;;;;;;5033486;28;20462;-54
2022/05/07 09:31:35;;;;;;;62.78;40.75;;;13.10;99.90;;;;;;5033603;28;20049;-53
2022/05/07 09:37:18;;;;;;;56.88;41.60;;;13.00;99.90;;;;;;5032862;28;20049;-53
2022/05/07 09:39:48;;;;;;;56.05;40.38;;;13.00;99.90;;;;;;5033362;28;20134;-54
2022/05/07 09:42:16;;;;;;;59.30;40.10;;;13.10;99.90;;;;;;5033868;28;20045;-54
2022/05/07 09:44:44;;;;;;;52.88;39.30;;;13.20;99.90;;;;;;5033945;28;20049;-52
2022/05/07 09:47:12;;;;;;;57.70;41.13;;;13.30;99.90;;;;;;5027570;28;20099;-53
2022/05/07 09:50:20;;;;;;;59.80;43.75;;;13.50;99.90;;;;;;5016049;28;20069;-54
2022/05/07 09:52:30;;;;;;;57.47;40.85;;;13.60;99.90;;;;;;5013666;28;20045;-56
2022/05/07 09:57:42;;;;;;;58.10;40.75;;;13.80;99.90;;;;;;5013674;28;20042;-55
2022/05/07 10:00:13;;;;;;;59.80;40.55;;;14.00;99.90;;;;;;5020661;28;20513;-57
2022/05/07 10:03:04;;;;;;;50.97;36.33;;;14.10;99.90;;;;;;5034018;28;20045;-58
2022/05/07 10:05:49;;;;;;;50.65;35.38;;;14.10;99.90;;;;;;5033344;28;20144;-56
2022/05/07 10:08:25;;;;;;;51.85;39.83;;;14.20;99.90;;;;;;5029097;28;20068;-55
2022/05/07 10:10:54;;;;;;;47.42;36.30;;;14.30;99.90;;;;;;5023751;28;20508;-56
2022/05/07 10:13:21;;;;;;;54.97;40.72;;;14.30;99.90;;;;;;5013521;28;20057;-54
2022/05/07 10:16:01;;;;;;;56.65;41.03;;;14.20;99.90;;;;;;5018377;28;20966;-56
2022/05/07 10:18:38;;;;;;;51.80;38.65;;;14.20;99.90;;;;;;5013472;28;20849;-56
2022/05/07 10:21:17;;;;;;;47.33;36.30;;;14.10;99.90;;;;;;4979579;28;20059;-56
2022/05/07 10:23:54;;;;;;;48.30;36.63;;;14.10;99.90;;;;;;5014208;28;20050;-54
2022/05/07 10:26:23;;;;;;;53.08;40.95;;;14.10;99.90;;;;;;5012979;28;20772;-54
2022/05/07 10:28:51;;;;;;;47.55;36.28;;;14.10;99.90;;;;;;5012781;28;20088;-56
2022/05/07 10:31:22;;;;;;;55.85;38.55;;;14.10;99.90;;;;;;5013762;28;20620;-53
2022/05/07 10:33:50;;;;;;;49.67;39.58;;;14.20;99.90;;;;;;5013487;28;20045;-55
2022/05/07 10:36:18;;;;;;;44.67;35.45;;;14.30;99.90;;;;;;5013675;28;20313;-55
2022/05/07 10:38:46;;;;;;;51.13;39.30;;;14.40;99.90;;;;;;5012785;28;20136;-53
2022/05/07 10:41:14;;;;;;;42.83;33.58;;;14.50;99.90;;;;;;5026920;28;20045;-57
2022/05/07 10:43:46;;;;;;;53.08;38.72;;;14.50;99.90;;;;;;5031298;28;20143;-56
2022/05/07 10:46:20;;;;;;;44.85;34.15;;;14.60;99.90;;;;;;5033273;28;20037;-57
2022/05/07 10:49:04;;;;;;;47.95;37.42;;;14.60;99.90;;;;;;5022126;28;20144;-53
2022/05/07 10:51:35;;;;;;;56.28;40.03;;;14.60;99.90;;;;;;5015244;28;20684;-53
2022/05/07 10:54:18;;;;;;;45.33;35.15;;;14.60;99.90;;;;;;5017863;28;20657;-51
2022/05/07 10:56:47;;;;;;;45.53;31.33;;;14.70;99.90;;;;;;5016778;28;20622;-53
2022/05/07 10:59:14;;;;;;;40.90;30.98;;;14.80;99.90;;;;;;5019097;28;20492;-53
2022/05/07 11:01:43;;;;;;;38.00;29.27;;;14.80;99.90;;;;;;5036515;28;20090;-53
2022/05/07 11:04:12;;;;;;;43.90;33.50;;;14.90;99.90;;;;;;5037290;28;20114;-54
2022/05/07 11:06:39;;;;;;;40.40;32.13;;;15.00;99.90;;;;;;5034904;28;20056;-54
2022/05/07 11:09:13;;;;;;;38.40;30.98;;;15.10;99.90;;;;;;5031978;28;20104;-53
2022/05/07 11:11:47;;;;;;;38.05;31.52;;;15.10;99.90;;;;;;5031302;28;20251;-52
2022/05/07 11:14:25;;;;;;;34.40;29.38;;;15.20;99.90;;;;;;5035867;28;20052;-54
2022/05/07 11:16:53;;;;;;;44.50;35.42;;;15.30;99.90;;;;;;5034669;28;20055;-53
2022/05/07 11:19:25;;;;;;;42.80;35.38;;;15.50;99.90;;;;;;5037090;28;20438;-51
2022/05/07 11:21:53;;;;;;;41.65;29.00;;;15.70;99.90;;;;;;5036938;28;20059;-51
2022/05/07 11:24:20;;;;;;;34.63;28.42;;;15.90;99.90;;;;;;5036773;28;20049;-52
2022/05/07 11:26:51;;;;;;;36.42;30.02;;;16.00;99.90;;;;;;5034439;28;20119;-52
2022/05/07 11:29:19;;;;;;;30.52;23.77;;;16.10;99.90;;;;;;5036279;28;20041;-53
2022/05/07 11:32:06;;;;;;;33.85;26.83;;;16.20;99.90;;;;;;5036706;28;20049;-52
2022/05/07 11:34:38;;;;;;;36.70;27.25;;;16.20;99.90;;;;;;5035931;28;20064;-53
2022/05/07 11:37:20;;;;;;;39.22;29.50;;;16.20;99.90;;;;;;5035150;28;20060;-52
2022/05/07 11:39:59;;;;;;;35.35;27.63;;;16.10;99.90;;;;;;5034748;28;20055;-52
2022/05/07 11:42:35;;;;;;;35.08;26.98;;;16.10;99.90;;;;;;5036304;28;20697;-53
2022/05/07 11:45:26;;;;;;;39.28;28.83;;;16.00;99.90;;;;;;5036107;28;20087;-52
2022/05/07 11:47:56;;;;;;;30.77;26.20;;;16.00;99.90;;;;;;5035249;28;20049;-53
2022/05/07 11:50:27;;;;;;;32.50;25.27;;;16.00;99.90;;;;;;5026438;28;20041;-53
2022/05/07 11:52:56;;;;;;;32.42;24.20;;;16.00;99.90;;;;;;5036114;28;20064;-53
2022/05/07 11:55:29;;;;;;;34.13;26.08;;;16.00;99.90;;;;;;5035863;28;20044;-54
2022/05/07 11:57:56;;;;;;;27.70;23.30;;;16.00;99.90;;;;;;5034425;28;20044;-57
2022/05/07 12:00:26;;;;;;;30.42;26.25;;;16.00;99.90;;;;;;5023164;28;20045;-54
2022/05/07 12:02:54;;;;;;;29.13;22.50;;;16.00;99.90;;;;;;4998119;28;20664;-55
2022/05/07 12:05:23;;;;;;;34.90;28.17;;;16.00;99.90;;;;;;5015581;28;20038;-58
2022/05/07 12:07:51;;;;;;;30.75;25.92;;;16.00;99.90;;;;;;5014741;28;20045;-56
2022/05/07 12:10:20;;;;;;;27.70;22.98;;;16.00;99.90;;;;;;5024710;28;20821;-56
2022/05/07 12:12:48;;;;;;;29.23;24.42;;;16.10;99.90;;;;;;5014909;28;20099;-57
2022/05/07 12:15:15;;;;;;;28.77;24.38;;;16.10;99.90;;;;;;5015788;28;20041;-54
2022/05/07 12:17:55;;;;;;;27.55;21.92;;;16.20;99.90;;;;;;5034625;28;20049;-57
2022/05/07 12:20:23;;;;;;;30.33;24.13;;;16.20;99.90;;;;;;5034863;28;20052;-56
2022/05/07 12:31:13;;;;;;;29.83;23.85;;;16.20;99.90;;;;;;5035177;28;20127;-55
2022/05/07 12:33:40;;;;;;;32.55;27.33;;;16.00;99.90;;;;;;5033661;28;20494;-55
2022/05/07 12:36:08;;;;;;;30.50;26.05;;;16.00;99.90;;;;;;5033288;28;20053;-56
2022/05/07 12:38:34;;;;;;;32.50;26.60;;;15.80;99.90;;;;;;5035226;28;20406;-55
2022/05/07 12:41:01;;;;;;;32.75;26.33;;;15.80;99.90;;;;;;5033758;28;20041;-55
2022/05/07 12:43:28;;;;;;;30.67;26.05;;;15.70;99.90;;;;;;5035345;28;20549;-57
2022/05/07 12:45:55;;;;;;;33.28;26.15;;;15.70;99.90;;;;;;5035552;28;20040;-52
2022/05/07 12:48:22;;;;;;;36.30;25.45;;;15.60;99.90;;;;;;5034507;28;20137;-51
2022/05/07 12:50:50;;;;;;;30.58;23.83;;;15.60;99.90;;;;;;5029219;28;20037;-56
2022/05/07 12:53:17;;;;;;;28.67;21.42;;;15.60;99.90;;;;;;5033966;28;20045;-57
2022/05/07 12:55:44;;;;;;;28.13;23.83;;;15.50;99.90;;;;;;5033743;28;20040;-56
2022/05/07 12:58:12;;;;;;;24.08;19.63;;;15.50;99.90;;;;;;5033495;28;20041;-56
2022/05/07 13:00:40;;;;;;;31.58;24.45;;;15.50;99.90;;;;;;5021225;28;20053;-56
2022/05/07 13:03:08;;;;;;;25.65;22.17;;;15.50;99.90;;;;;;5015016;28;20562;-56
2022/05/07 13:05:35;;;;;;;25.17;19.48;;;15.50;99.90;;;;;;5014595;28;20484;-56
2022/05/07 13:08:18;;;;;;;27.60;21.25;;;15.50;99.90;;;;;;5017614;28;20029;-56
2022/05/07 13:10:46;;;;;;;25.08;21.00;;;15.50;99.90;;;;;;5023192;28;20037;-55
2022/05/07 13:13:12;;;;;;;27.33;21.30;;;15.50;99.90;;;;;;5034693;28;20064;-53
2022/05/07 13:15:39;;;;;;;;;;;15.60;99.90;;;;;;5034371;28;20051;-57
2022/05/07 13:18:07;;;;;;;25.13;22.17;;;15.60;99.90;;;;;;5032067;28;19951;-54
2022/05/07 13:20:38;;;;;;;24.48;21.08;;;15.60;99.90;;;;;;5034008;28;20435;-53
2022/05/07 13:23:05;;;;;;;20.67;18.45;;;15.60;99.90;;;;;;5016952;28;20048;-55
2022/05/07 13:25:32;;;;;;;23.02;20.33;;;15.70;99.90;;;;;;5034348;28;20041;-57